sensor_id;sensor_type;location;lat;lon;timestamp;P1;durP1;ratioP1;P2;durP2;ratioP2
26325;SDS011;14032;52.510;7.342;2022-09-01T00:02:03;4.68;;;1.48;;
26325;SDS011;14032;52.510;7.342;2022-09-01T00:04:32;6.57;;;1.40;;
26325;SDS011;14032;52.510;7.342;2022-09-01T00:07:03;4.70;;;1.63;;
26325;SDS011;14032;52.510;7.342;2022-09-01T00:09:33;2.78;;;1.65;;
26325;SDS011;14032;52.510;7.342;2022-09-01T00:12:00;3.97;;;1.60;;
26325;SDS011;14032;52.510;7.342;2022-09-01T00:14:28;5.40;;;1.60;;
26325;SDS011;14032;52.510;7.342;2022-09-01T00:16:57;5.88;;;1.92;;
26325;SDS011;14032;52.510;7.342;2022-09-01T00:19:23;2.95;;;1.52;;
26325;SDS011;14032;52.510;7.342;2022-09-01T00:21:49;3.00;;;1.98;;
26325;SDS011;14032;52.510;7.342;2022-09-01T00:24:16;2.20;;;1.50;;
26325;SDS011;14032;52.510;7.342;2022-09-01T00:26:43;2.78;;;1.75;;
26325;SDS011;14032;52.510;7.342;2022-09-01T00:29:09;4.28;;;1.90;;
26325;SDS011;14032;52.510;7.342;2022-09-01T00:31:36;3.35;;;1.80;;
26325;SDS011;14032;52.510;7.342;2022-09-01T00:34:02;4.57;;;1.85;;
26325;SDS011;14032;52.510;7.342;2022-09-01T00:36:28;4.53;;;1.65;;
26325;SDS011;14032;52.510;7.342;2022-09-01T00:38:54;4.72;;;2.13;;
26325;SDS011;14032;52.510;7.342;2022-09-01T00:41:23;4.63;;;1.60;;
26325;SDS011;14032;52.510;7.342;2022-09-01T00:43:51;2.70;;;1.60;;
26325;SDS011;14032;52.510;7.342;2022-09-01T00:46:24;4.32;;;1.58;;
26325;SDS011;14032;52.510;7.342;2022-09-01T00:48:53;6.25;;;1.73;;
26325;SDS011;14032;52.510;7.342;2022-09-01T00:51:23;2.97;;;1.77;;
26325;SDS011;14032;52.510;7.342;2022-09-01T00:53:50;3.20;;;1.85;;
26325;SDS011;14032;52.510;7.342;2022-09-01T00:56:17;3.47;;;2.20;;
26325;SDS011;14032;52.510;7.342;2022-09-01T00:58:43;3.63;;;1.75;;
26325;SDS011;14032;52.510;7.342;2022-09-01T01:01:10;5.32;;;2.20;;
26325;SDS011;14032;52.510;7.342;2022-09-01T01:03:36;3.50;;;1.67;;
26325;SDS011;14032;52.510;7.342;2022-09-01T01:06:08;8.82;;;2.10;;
26325;SDS011;14032;52.510;7.342;2022-09-01T01:08:36;2.75;;;1.75;;
26325;SDS011;14032;52.510;7.342;2022-09-01T01:13:52;4.30;;;1.77;;
26325;SDS011;14032;52.510;7.342;2022-09-01T01:16:45;5.80;;;1.70;;
26325;SDS011;14032;52.510;7.342;2022-09-01T01:30:38;5.72;;;1.85;;
26325;SDS011;14032;52.510;7.342;2022-09-01T01:33:07;3.17;;;1.55;;
26325;SDS011;14032;52.510;7.342;2022-09-01T01:35:34;3.58;;;1.70;;
26325;SDS011;14032;52.510;7.342;2022-09-01T01:38:02;6.10;;;1.98;;
26325;SDS011;14032;52.510;7.342;2022-09-01T01:40:31;4.95;;;2.00;;
26325;SDS011;14032;52.510;7.342;2022-09-01T01:42:57;5.15;;;1.85;;
26325;SDS011;14032;52.510;7.342;2022-09-01T01:45:25;3.92;;;1.83;;
26325;SDS011;14032;52.510;7.342;2022-09-01T01:47:52;3.50;;;1.83;;
26325;SDS011;14032;52.510;7.342;2022-09-01T01:50:23;3.30;;;1.60;;
26325;SDS011;14032;52.510;7.342;2022-09-01T01:52:51;4.65;;;2.15;;
26325;SDS011;14032;52.510;7.342;2022-09-01T01:55:18;5.57;;;2.10;;
26325;SDS011;14032;52.510;7.342;2022-09-01T01:57:45;3.05;;;1.95;;
26325;SDS011;14032;52.510;7.342;2022-09-01T02:00:16;5.32;;;1.98;;
26325;SDS011;14032;52.510;7.342;2022-09-01T02:02:47;3.60;;;1.67;;
26325;SDS011;14032;52.510;7.342;2022-09-01T02:05:50;6.75;;;2.10;;
26325;SDS011;14032;52.510;7.342;2022-09-01T02:08:10;3.40;;;1.60;;
26325;SDS011;14032;52.510;7.342;2022-09-01T02:10:43;4.00;;;1.70;;
26325;SDS011;14032;52.510;7.342;2022-09-01T02:13:12;3.25;;;1.55;;
26325;SDS011;14032;52.510;7.342;2022-09-01T02:15:46;4.82;;;1.98;;
26325;SDS011;14032;52.510;7.342;2022-09-01T02:18:19;5.45;;;1.75;;
26325;SDS011;14032;52.510;7.342;2022-09-01T02:20:48;5.00;;;2.03;;
26325;SDS011;14032;52.510;7.342;2022-09-01T02:23:15;4.75;;;1.80;;
26325;SDS011;14032;52.510;7.342;2022-09-01T02:25:47;4.78;;;1.88;;
26325;SDS011;14032;52.510;7.342;2022-09-01T02:28:15;5.32;;;1.77;;
26325;SDS011;14032;52.510;7.342;2022-09-01T02:30:46;2.90;;;1.75;;
26325;SDS011;14032;52.510;7.342;2022-09-01T02:33:16;5.35;;;1.92;;
26325;SDS011;14032;52.510;7.342;2022-09-01T02:35:47;2.40;;;1.60;;
26325;SDS011;14032;52.510;7.342;2022-09-01T02:38:16;5.20;;;1.88;;
26325;SDS011;14032;52.510;7.342;2022-09-01T02:40:42;2.75;;;1.88;;
26325;SDS011;14032;52.510;7.342;2022-09-01T02:43:11;2.45;;;1.60;;
26325;SDS011;14032;52.510;7.342;2022-09-01T02:45:37;3.28;;;1.70;;
26325;SDS011;14032;52.510;7.342;2022-09-01T02:48:06;3.38;;;1.67;;
26325;SDS011;14032;52.510;7.342;2022-09-01T02:50:34;4.07;;;1.63;;
26325;SDS011;14032;52.510;7.342;2022-09-01T02:53:00;15.38;;;2.10;;
26325;SDS011;14032;52.510;7.342;2022-09-01T02:55:26;6.88;;;1.90;;
26325;SDS011;14032;52.510;7.342;2022-09-01T02:57:52;4.50;;;1.73;;
26325;SDS011;14032;52.510;7.342;2022-09-01T03:00:21;3.55;;;1.88;;
26325;SDS011;14032;52.510;7.342;2022-09-01T03:02:54;3.35;;;2.10;;
26325;SDS011;14032;52.510;7.342;2022-09-01T03:05:22;4.18;;;2.17;;
26325;SDS011;14032;52.510;7.342;2022-09-01T03:07:58;4.53;;;1.60;;
26325;SDS011;14032;52.510;7.342;2022-09-01T03:12:57;4.88;;;1.50;;
26325;SDS011;14032;52.510;7.342;2022-09-01T03:15:24;2.67;;;1.48;;
26325;SDS011;14032;52.510;7.342;2022-09-01T03:17:51;5.88;;;2.22;;
26325;SDS011;14032;52.510;7.342;2022-09-01T03:20:17;3.60;;;1.90;;
26325;SDS011;14032;52.510;7.342;2022-09-01T03:22:44;3.50;;;1.98;;
26325;SDS011;14032;52.510;7.342;2022-09-01T03:25:11;4.18;;;1.88;;
26325;SDS011;14032;52.510;7.342;2022-09-01T03:27:37;5.93;;;1.90;;
26325;SDS011;14032;52.510;7.342;2022-09-01T03:30:03;4.55;;;1.70;;
26325;SDS011;14032;52.510;7.342;2022-09-01T03:32:29;3.80;;;1.80;;
26325;SDS011;14032;52.510;7.342;2022-09-01T03:34:54;3.30;;;2.00;;
26325;SDS011;14032;52.510;7.342;2022-09-01T03:37:21;5.32;;;1.85;;
26325;SDS011;14032;52.510;7.342;2022-09-01T03:39:47;7.80;;;2.05;;
26325;SDS011;14032;52.510;7.342;2022-09-01T03:42:13;6.10;;;2.10;;
26325;SDS011;14032;52.510;7.342;2022-09-01T03:44:43;4.00;;;2.20;;
26325;SDS011;14032;52.510;7.342;2022-09-01T03:47:09;4.10;;;1.80;;
26325;SDS011;14032;52.510;7.342;2022-09-01T03:49:39;4.70;;;1.65;;
26325;SDS011;14032;52.510;7.342;2022-09-01T03:52:07;2.95;;;1.98;;
26325;SDS011;14032;52.510;7.342;2022-09-01T03:54:34;4.07;;;1.92;;
26325;SDS011;14032;52.510;7.342;2022-09-01T03:57:00;4.47;;;2.13;;
26325;SDS011;14032;52.510;7.342;2022-09-01T03:59:26;9.82;;;2.08;;
26325;SDS011;14032;52.510;7.342;2022-09-01T04:01:53;3.42;;;1.75;;
26325;SDS011;14032;52.510;7.342;2022-09-01T04:04:20;2.70;;;1.73;;
26325;SDS011;14032;52.510;7.342;2022-09-01T04:06:46;4.82;;;1.90;;
26325;SDS011;14032;52.510;7.342;2022-09-01T04:09:12;4.65;;;1.90;;
26325;SDS011;14032;52.510;7.342;2022-09-01T04:11:38;3.25;;;2.00;;
26325;SDS011;14032;52.510;7.342;2022-09-01T04:14:04;4.13;;;1.70;;
26325;SDS011;14032;52.510;7.342;2022-09-01T04:16:31;2.90;;;1.77;;
26325;SDS011;14032;52.510;7.342;2022-09-01T04:21:44;5.60;;;1.80;;
26325;SDS011;14032;52.510;7.342;2022-09-01T04:24:11;2.95;;;1.73;;
26325;SDS011;14032;52.510;7.342;2022-09-01T04:26:39;4.53;;;2.10;;
26325;SDS011;14032;52.510;7.342;2022-09-01T04:29:05;5.38;;;2.50;;
26325;SDS011;14032;52.510;7.342;2022-09-01T04:31:33;3.30;;;2.08;;
26325;SDS011;14032;52.510;7.342;2022-09-01T04:34:02;7.68;;;2.38;;
26325;SDS011;14032;52.510;7.342;2022-09-01T04:36:37;11.50;;;2.20;;
26325;SDS011;14032;52.510;7.342;2022-09-01T04:39:06;8.00;;;2.28;;
26325;SDS011;14032;52.510;7.342;2022-09-01T04:41:37;3.55;;;1.95;;
26325;SDS011;14032;52.510;7.342;2022-09-01T04:44:05;7.40;;;2.50;;
26325;SDS011;14032;52.510;7.342;2022-09-01T04:46:32;5.55;;;1.98;;
26325;SDS011;14032;52.510;7.342;2022-09-01T04:49:01;5.63;;;2.60;;
26325;SDS011;14032;52.510;7.342;2022-09-01T04:51:33;6.68;;;2.70;;
26325;SDS011;14032;52.510;7.342;2022-09-01T04:54:02;5.82;;;2.25;;
26325;SDS011;14032;52.510;7.342;2022-09-01T04:56:29;5.57;;;2.28;;
26325;SDS011;14032;52.510;7.342;2022-09-01T04:58:59;3.50;;;1.83;;
26325;SDS011;14032;52.510;7.342;2022-09-01T05:01:26;4.55;;;2.50;;
26325;SDS011;14032;52.510;7.342;2022-09-01T05:03:52;4.05;;;2.05;;
26325;SDS011;14032;52.510;7.342;2022-09-01T05:06:26;5.15;;;2.33;;
26325;SDS011;14032;52.510;7.342;2022-09-01T05:08:53;4.25;;;2.30;;
26325;SDS011;14032;52.510;7.342;2022-09-01T05:11:21;2.72;;;2.08;;
26325;SDS011;14032;52.510;7.342;2022-09-01T05:13:48;5.18;;;2.17;;
26325;SDS011;14032;52.510;7.342;2022-09-01T05:16:16;2.58;;;1.77;;
26325;SDS011;14032;52.510;7.342;2022-09-01T05:18:47;3.05;;;2.30;;
26325;SDS011;14032;52.510;7.342;2022-09-01T05:21:15;3.95;;;2.35;;
26325;SDS011;14032;52.510;7.342;2022-09-01T05:23:46;6.40;;;2.83;;
26325;SDS011;14032;52.510;7.342;2022-09-01T05:26:15;4.40;;;2.42;;
26325;SDS011;14032;52.510;7.342;2022-09-01T05:28:44;3.47;;;2.55;;
26325;SDS011;14032;52.510;7.342;2022-09-01T05:31:11;3.17;;;2.33;;
26325;SDS011;14032;52.510;7.342;2022-09-01T05:33:37;4.10;;;2.10;;
26325;SDS011;14032;52.510;7.342;2022-09-01T05:36:10;5.03;;;2.10;;
26325;SDS011;14032;52.510;7.342;2022-09-01T05:38:37;3.20;;;2.20;;
26325;SDS011;14032;52.510;7.342;2022-09-01T05:41:06;4.53;;;2.22;;
26325;SDS011;14032;52.510;7.342;2022-09-01T05:43:34;3.70;;;2.33;;
26325;SDS011;14032;52.510;7.342;2022-09-01T05:46:01;3.95;;;2.20;;
26325;SDS011;14032;52.510;7.342;2022-09-01T05:48:31;13.80;;;2.78;;
26325;SDS011;14032;52.510;7.342;2022-09-01T05:51:03;8.60;;;2.83;;
26325;SDS011;14032;52.510;7.342;2022-09-01T05:53:33;6.60;;;2.10;;
26325;SDS011;14032;52.510;7.342;2022-09-01T05:56:00;5.38;;;2.25;;
26325;SDS011;14032;52.510;7.342;2022-09-01T05:58:32;6.50;;;2.63;;
26325;SDS011;14032;52.510;7.342;2022-09-01T06:00:59;6.38;;;2.47;;
26325;SDS011;14032;52.510;7.342;2022-09-01T06:03:25;5.10;;;2.28;;
26325;SDS011;14032;52.510;7.342;2022-09-01T06:05:52;4.00;;;2.17;;
26325;SDS011;14032;52.510;7.342;2022-09-01T06:08:20;5.13;;;2.38;;
26325;SDS011;14032;52.510;7.342;2022-09-01T06:10:49;4.82;;;2.65;;
26325;SDS011;14032;52.510;7.342;2022-09-01T06:13:16;6.50;;;2.35;;
26325;SDS011;14032;52.510;7.342;2022-09-01T06:15:45;6.18;;;2.20;;
26325;SDS011;14032;52.510;7.342;2022-09-01T06:18:12;5.82;;;2.20;;
26325;SDS011;14032;52.510;7.342;2022-09-01T06:20:39;4.13;;;2.40;;
26325;SDS011;14032;52.510;7.342;2022-09-01T06:23:07;4.35;;;2.17;;
26325;SDS011;14032;52.510;7.342;2022-09-01T06:25:35;4.13;;;2.25;;
26325;SDS011;14032;52.510;7.342;2022-09-01T06:28:01;7.07;;;2.28;;
26325;SDS011;14032;52.510;7.342;2022-09-01T06:30:28;3.03;;;2.00;;
26325;SDS011;14032;52.510;7.342;2022-09-01T06:32:54;4.57;;;1.90;;
26325;SDS011;14032;52.510;7.342;2022-09-01T06:35:21;4.10;;;2.30;;
26325;SDS011;14032;52.510;7.342;2022-09-01T06:37:53;4.72;;;2.35;;
26325;SDS011;14032;52.510;7.342;2022-09-01T06:40:20;2.58;;;1.77;;
26325;SDS011;14032;52.510;7.342;2022-09-01T06:42:49;6.03;;;1.90;;
26325;SDS011;14032;52.510;7.342;2022-09-01T06:45:17;6.68;;;2.30;;
26325;SDS011;14032;52.510;7.342;2022-09-01T06:47:45;4.00;;;2.20;;
26325;SDS011;14032;52.510;7.342;2022-09-01T06:50:12;2.08;;;1.70;;
26325;SDS011;14032;52.510;7.342;2022-09-01T06:52:40;5.70;;;2.22;;
26325;SDS011;14032;52.510;7.342;2022-09-01T06:55:07;4.03;;;2.40;;
26325;SDS011;14032;52.510;7.342;2022-09-01T06:57:34;5.90;;;2.05;;
26325;SDS011;14032;52.510;7.342;2022-09-01T07:00:01;3.28;;;1.95;;
26325;SDS011;14032;52.510;7.342;2022-09-01T07:02:41;2.42;;;1.63;;
26325;SDS011;14032;52.510;7.342;2022-09-01T07:05:08;9.68;;;2.80;;
26325;SDS011;14032;52.510;7.342;2022-09-01T07:07:34;3.65;;;1.90;;
26325;SDS011;14032;52.510;7.342;2022-09-01T07:10:02;6.22;;;1.83;;
26325;SDS011;14032;52.510;7.342;2022-09-01T07:12:29;3.25;;;2.17;;
26325;SDS011;14032;52.510;7.342;2022-09-01T07:14:56;4.28;;;2.05;;
26325;SDS011;14032;52.510;7.342;2022-09-01T07:17:23;7.28;;;2.25;;
26325;SDS011;14032;52.510;7.342;2022-09-01T07:19:50;3.67;;;1.85;;
26325;SDS011;14032;52.510;7.342;2022-09-01T07:22:16;6.07;;;1.77;;
26325;SDS011;14032;52.510;7.342;2022-09-01T07:24:42;3.60;;;1.90;;
26325;SDS011;14032;52.510;7.342;2022-09-01T07:27:10;4.63;;;1.88;;
26325;SDS011;14032;52.510;7.342;2022-09-01T07:29:36;4.88;;;1.70;;
26325;SDS011;14032;52.510;7.342;2022-09-01T07:32:03;4.45;;;1.75;;
26325;SDS011;14032;52.510;7.342;2022-09-01T07:34:29;2.75;;;1.42;;
26325;SDS011;14032;52.510;7.342;2022-09-01T07:36:55;3.20;;;1.95;;
26325;SDS011;14032;52.510;7.342;2022-09-01T07:39:24;3.50;;;1.60;;
26325;SDS011;14032;52.510;7.342;2022-09-01T07:41:49;10.15;;;1.90;;
26325;SDS011;14032;52.510;7.342;2022-09-01T07:44:15;6.18;;;1.90;;
26325;SDS011;14032;52.510;7.342;2022-09-01T07:46:41;4.18;;;1.70;;
26325;SDS011;14032;52.510;7.342;2022-09-01T07:49:07;9.13;;;1.88;;
26325;SDS011;14032;52.510;7.342;2022-09-01T07:51:33;3.28;;;1.70;;
26325;SDS011;14032;52.510;7.342;2022-09-01T07:54:00;2.85;;;1.48;;
26325;SDS011;14032;52.510;7.342;2022-09-01T07:56:28;2.17;;;1.48;;
26325;SDS011;14032;52.510;7.342;2022-09-01T07:58:54;6.80;;;1.60;;
26325;SDS011;14032;52.510;7.342;2022-09-01T08:01:22;3.40;;;1.50;;
26325;SDS011;14032;52.510;7.342;2022-09-01T08:03:51;4.22;;;1.60;;
26325;SDS011;14032;52.510;7.342;2022-09-01T08:06:20;8.30;;;1.80;;
26325;SDS011;14032;52.510;7.342;2022-09-01T08:08:49;7.30;;;1.73;;
26325;SDS011;14032;52.510;7.342;2022-09-01T08:11:17;5.57;;;1.40;;
26325;SDS011;14032;52.510;7.342;2022-09-01T08:13:47;4.15;;;1.70;;
26325;SDS011;14032;52.510;7.342;2022-09-01T08:16:13;5.63;;;1.73;;
26325;SDS011;14032;52.510;7.342;2022-09-01T08:18:39;4.97;;;1.25;;
26325;SDS011;14032;52.510;7.342;2022-09-01T08:21:09;3.50;;;1.60;;
26325;SDS011;14032;52.510;7.342;2022-09-01T08:23:37;2.65;;;1.30;;
26325;SDS011;14032;52.510;7.342;2022-09-01T08:26:04;2.92;;;1.10;;
26325;SDS011;14032;52.510;7.342;2022-09-01T08:28:33;3.75;;;1.10;;
26325;SDS011;14032;52.510;7.342;2022-09-01T08:30:59;3.97;;;0.93;;
26325;SDS011;14032;52.510;7.342;2022-09-01T08:33:30;4.53;;;1.20;;
26325;SDS011;14032;52.510;7.342;2022-09-01T08:35:59;2.72;;;1.38;;
26325;SDS011;14032;52.510;7.342;2022-09-01T08:38:25;4.57;;;1.40;;
26325;SDS011;14032;52.510;7.342;2022-09-01T08:40:53;2.17;;;1.10;;
26325;SDS011;14032;52.510;7.342;2022-09-01T08:43:38;2.00;;;0.82;;
26325;SDS011;14032;52.510;7.342;2022-09-01T08:46:29;6.18;;;1.00;;
26325;SDS011;14032;52.510;7.342;2022-09-01T08:48:59;2.70;;;0.90;;
26325;SDS011;14032;52.510;7.342;2022-09-01T08:51:36;2.90;;;1.10;;
26325;SDS011;14032;52.510;7.342;2022-09-01T08:54:09;3.55;;;0.98;;
26325;SDS011;14032;52.510;7.342;2022-09-01T08:56:50;2.75;;;0.90;;
26325;SDS011;14032;52.510;7.342;2022-09-01T08:59:21;3.72;;;1.00;;
26325;SDS011;14032;52.510;7.342;2022-09-01T09:04:24;6.00;;;1.05;;
26325;SDS011;14032;52.510;7.342;2022-09-01T09:07:35;6.72;;;1.00;;
26325;SDS011;14032;52.510;7.342;2022-09-01T09:10:25;2.70;;;1.08;;
26325;SDS011;14032;52.510;7.342;2022-09-01T09:15:43;6.88;;;0.90;;
26325;SDS011;14032;52.510;7.342;2022-09-01T09:18:17;2.95;;;0.90;;
26325;SDS011;14032;52.510;7.342;2022-09-01T09:20:50;5.38;;;0.90;;
26325;SDS011;14032;52.510;7.342;2022-09-01T09:23:23;4.32;;;0.77;;
26325;SDS011;14032;52.510;7.342;2022-09-01T09:25:53;4.90;;;0.90;;
26325;SDS011;14032;52.510;7.342;2022-09-01T09:28:19;4.18;;;0.80;;
26325;SDS011;14032;52.510;7.342;2022-09-01T09:30:44;4.50;;;0.90;;
26325;SDS011;14032;52.510;7.342;2022-09-01T09:33:10;8.38;;;0.93;;
26325;SDS011;14032;52.510;7.342;2022-09-01T09:36:15;1.63;;;0.85;;
26325;SDS011;14032;52.510;7.342;2022-09-01T09:38:45;3.53;;;0.60;;
26325;SDS011;14032;52.510;7.342;2022-09-01T09:41:18;2.13;;;0.82;;
26325;SDS011;14032;52.510;7.342;2022-09-01T09:43:46;1.60;;;0.65;;
26325;SDS011;14032;52.510;7.342;2022-09-01T09:48:45;0.98;;;0.40;;
26325;SDS011;14032;52.510;7.342;2022-09-01T09:51:21;2.40;;;0.82;;
26325;SDS011;14032;52.510;7.342;2022-09-01T09:53:47;2.90;;;0.70;;
26325;SDS011;14032;52.510;7.342;2022-09-01T09:56:17;2.38;;;0.80;;
26325;SDS011;14032;52.510;7.342;2022-09-01T09:58:47;2.35;;;1.05;;
26325;SDS011;14032;52.510;7.342;2022-09-01T10:09:14;2.13;;;0.60;;
26325;SDS011;14032;52.510;7.342;2022-09-01T10:11:50;1.95;;;0.70;;
26325;SDS011;14032;52.510;7.342;2022-09-01T10:14:29;1.15;;;0.73;;
26325;SDS011;14032;52.510;7.342;2022-09-01T10:17:11;3.13;;;0.80;;
26325;SDS011;14032;52.510;7.342;2022-09-01T10:19:54;1.95;;;0.70;;
26325;SDS011;14032;52.510;7.342;2022-09-01T10:22:23;5.75;;;1.20;;
26325;SDS011;14032;52.510;7.342;2022-09-01T10:24:50;2.70;;;1.13;;
26325;SDS011;14032;52.510;7.342;2022-09-01T10:27:21;3.35;;;1.17;;
26325;SDS011;14032;52.510;7.342;2022-09-01T10:29:56;1.92;;;0.88;;
26325;SDS011;14032;52.510;7.342;2022-09-01T10:32:41;3.45;;;1.05;;
26325;SDS011;14032;52.510;7.342;2022-09-01T10:35:19;3.22;;;0.73;;
26325;SDS011;14032;52.510;7.342;2022-09-01T10:37:48;1.75;;;0.88;;
26325;SDS011;14032;52.510;7.342;2022-09-01T10:40:20;4.10;;;0.88;;
26325;SDS011;14032;52.510;7.342;2022-09-01T10:45:49;3.88;;;0.88;;
26325;SDS011;14032;52.510;7.342;2022-09-01T10:50:48;2.28;;;0.80;;
26325;SDS011;14032;52.510;7.342;2022-09-01T10:59:03;2.67;;;0.63;;
26325;SDS011;14032;52.510;7.342;2022-09-01T11:04:14;2.58;;;0.55;;
26325;SDS011;14032;52.510;7.342;2022-09-01T11:09:22;2.03;;;0.57;;
26325;SDS011;14032;52.510;7.342;2022-09-01T11:12:11;3.33;;;0.60;;
26325;SDS011;14032;52.510;7.342;2022-09-01T11:15:04;1.13;;;0.57;;
26325;SDS011;14032;52.510;7.342;2022-09-01T11:28:55;2.35;;;0.52;;
26325;SDS011;14032;52.510;7.342;2022-09-01T11:31:21;0.88;;;0.30;;
26325;SDS011;14032;52.510;7.342;2022-09-01T11:33:55;1.27;;;0.40;;
26325;SDS011;14032;52.510;7.342;2022-09-01T11:36:36;2.25;;;0.60;;
26325;SDS011;14032;52.510;7.342;2022-09-01T11:42:07;3.20;;;0.75;;
26325;SDS011;14032;52.510;7.342;2022-09-01T11:47:17;4.82;;;0.60;;
26325;SDS011;14032;52.510;7.342;2022-09-01T11:50:26;2.95;;;0.55;;
26325;SDS011;14032;52.510;7.342;2022-09-01T11:53:00;2.03;;;0.60;;
26325;SDS011;14032;52.510;7.342;2022-09-01T11:55:31;2.90;;;0.45;;
26325;SDS011;14032;52.510;7.342;2022-09-01T11:57:59;3.63;;;0.40;;
26325;SDS011;14032;52.510;7.342;2022-09-01T12:00:29;1.40;;;0.60;;
26325;SDS011;14032;52.510;7.342;2022-09-01T12:02:57;2.95;;;0.63;;
26325;SDS011;14032;52.510;7.342;2022-09-01T12:05:34;1.45;;;0.60;;
26325;SDS011;14032;52.510;7.342;2022-09-01T12:08:02;3.35;;;0.40;;
26325;SDS011;14032;52.510;7.342;2022-09-01T12:10:36;2.30;;;0.50;;
26325;SDS011;14032;52.510;7.342;2022-09-01T12:13:11;1.15;;;0.40;;
26325;SDS011;14032;52.510;7.342;2022-09-01T12:15:39;9.60;;;1.10;;
26325;SDS011;14032;52.510;7.342;2022-09-01T12:18:10;2.75;;;0.68;;
26325;SDS011;14032;52.510;7.342;2022-09-01T12:20:47;4.35;;;0.80;;
26325;SDS011;14032;52.510;7.342;2022-09-01T12:23:15;5.63;;;0.60;;
26325;SDS011;14032;52.510;7.342;2022-09-01T12:25:51;2.65;;;0.47;;
26325;SDS011;14032;52.510;7.342;2022-09-01T12:28:20;2.67;;;0.70;;
26325;SDS011;14032;52.510;7.342;2022-09-01T12:30:49;4.63;;;0.70;;
26325;SDS011;14032;52.510;7.342;2022-09-01T12:33:16;2.25;;;0.70;;
26325;SDS011;14032;52.510;7.342;2022-09-01T12:35:47;1.90;;;0.63;;
26325;SDS011;14032;52.510;7.342;2022-09-01T12:40:45;2.88;;;0.52;;
26325;SDS011;14032;52.510;7.342;2022-09-01T12:43:30;4.13;;;0.70;;
26325;SDS011;14032;52.510;7.342;2022-09-01T12:46:03;2.67;;;0.75;;
26325;SDS011;14032;52.510;7.342;2022-09-01T12:48:37;1.77;;;0.60;;
26325;SDS011;14032;52.510;7.342;2022-09-01T12:51:23;2.63;;;0.60;;
26325;SDS011;14032;52.510;7.342;2022-09-01T12:53:53;1.67;;;0.40;;
26325;SDS011;14032;52.510;7.342;2022-09-01T12:56:30;3.85;;;0.65;;
26325;SDS011;14032;52.510;7.342;2022-09-01T12:59:07;2.30;;;0.60;;
26325;SDS011;14032;52.510;7.342;2022-09-01T13:01:42;2.10;;;0.50;;
26325;SDS011;14032;52.510;7.342;2022-09-01T13:06:46;1.13;;;0.80;;
26325;SDS011;14032;52.510;7.342;2022-09-01T13:09:16;3.72;;;0.98;;
26325;SDS011;14032;52.510;7.342;2022-09-01T13:11:43;8.10;;;0.52;;
26325;SDS011;14032;52.510;7.342;2022-09-01T13:14:14;1.88;;;0.60;;
26325;SDS011;14032;52.510;7.342;2022-09-01T13:16:40;3.53;;;0.70;;
26325;SDS011;14032;52.510;7.342;2022-09-01T13:19:06;1.67;;;0.60;;
26325;SDS011;14032;52.510;7.342;2022-09-01T13:21:33;3.17;;;0.40;;
26325;SDS011;14032;52.510;7.342;2022-09-01T13:24:00;3.13;;;0.30;;
26325;SDS011;14032;52.510;7.342;2022-09-01T13:26:29;1.77;;;0.60;;
26325;SDS011;14032;52.510;7.342;2022-09-01T13:28:55;1.00;;;0.52;;
26325;SDS011;14032;52.510;7.342;2022-09-01T13:31:21;2.33;;;0.50;;
26325;SDS011;14032;52.510;7.342;2022-09-01T13:33:47;1.20;;;0.40;;
26325;SDS011;14032;52.510;7.342;2022-09-01T13:36:16;2.10;;;0.70;;
26325;SDS011;14032;52.510;7.342;2022-09-01T13:38:43;4.32;;;0.60;;
26325;SDS011;14032;52.510;7.342;2022-09-01T13:41:12;3.40;;;0.60;;
26325;SDS011;14032;52.510;7.342;2022-09-01T13:43:42;3.13;;;0.80;;
26325;SDS011;14032;52.510;7.342;2022-09-01T13:46:08;3.88;;;0.55;;
26325;SDS011;14032;52.510;7.342;2022-09-01T13:48:34;2.38;;;0.73;;
26325;SDS011;14032;52.510;7.342;2022-09-01T13:51:00;1.50;;;0.60;;
26325;SDS011;14032;52.510;7.342;2022-09-01T13:53:26;4.25;;;0.68;;
26325;SDS011;14032;52.510;7.342;2022-09-01T13:56:09;1.55;;;0.43;;
26325;SDS011;14032;52.510;7.342;2022-09-01T13:58:44;1.60;;;0.50;;
26325;SDS011;14032;52.510;7.342;2022-09-01T14:01:12;4.38;;;0.70;;
26325;SDS011;14032;52.510;7.342;2022-09-01T14:03:39;2.72;;;0.70;;
26325;SDS011;14032;52.510;7.342;2022-09-01T14:06:12;2.05;;;0.43;;
26325;SDS011;14032;52.510;7.342;2022-09-01T14:08:43;4.38;;;0.73;;
26325;SDS011;14032;52.510;7.342;2022-09-01T14:11:14;3.65;;;0.77;;
26325;SDS011;14032;52.510;7.342;2022-09-01T14:13:41;1.63;;;0.65;;
26325;SDS011;14032;52.510;7.342;2022-09-01T14:16:10;2.80;;;0.88;;
26325;SDS011;14032;52.510;7.342;2022-09-01T14:18:36;6.45;;;0.73;;
26325;SDS011;14032;52.510;7.342;2022-09-01T14:21:04;4.47;;;0.68;;
26325;SDS011;14032;52.510;7.342;2022-09-01T14:23:34;2.67;;;0.55;;
26325;SDS011;14032;52.510;7.342;2022-09-01T14:25:59;8.50;;;0.90;;
26325;SDS011;14032;52.510;7.342;2022-09-01T14:28:25;1.83;;;0.63;;
26325;SDS011;14032;52.510;7.342;2022-09-01T14:30:51;1.98;;;0.60;;
26325;SDS011;14032;52.510;7.342;2022-09-01T14:33:17;3.38;;;0.82;;
26325;SDS011;14032;52.510;7.342;2022-09-01T14:35:52;8.32;;;1.00;;
26325;SDS011;14032;52.510;7.342;2022-09-01T14:38:21;9.25;;;0.63;;
26325;SDS011;14032;52.510;7.342;2022-09-01T14:40:46;2.65;;;0.80;;
26325;SDS011;14032;52.510;7.342;2022-09-01T14:43:13;3.50;;;0.38;;
26325;SDS011;14032;52.510;7.342;2022-09-01T14:45:39;3.05;;;0.38;;
26325;SDS011;14032;52.510;7.342;2022-09-01T14:48:08;4.72;;;0.70;;
26325;SDS011;14032;52.510;7.342;2022-09-01T14:50:37;3.67;;;0.82;;
26325;SDS011;14032;52.510;7.342;2022-09-01T14:53:05;2.00;;;0.60;;
26325;SDS011;14032;52.510;7.342;2022-09-01T14:55:31;1.83;;;0.50;;
26325;SDS011;14032;52.510;7.342;2022-09-01T14:57:57;5.00;;;0.75;;
26325;SDS011;14032;52.510;7.342;2022-09-01T15:00:24;8.30;;;0.80;;
26325;SDS011;14032;52.510;7.342;2022-09-01T15:02:50;3.10;;;0.60;;
26325;SDS011;14032;52.510;7.342;2022-09-01T15:05:17;4.47;;;0.60;;
26325;SDS011;14032;52.510;7.342;2022-09-01T15:07:44;2.03;;;0.60;;
26325;SDS011;14032;52.510;7.342;2022-09-01T15:10:10;12.30;;;1.00;;
26325;SDS011;14032;52.510;7.342;2022-09-01T15:12:39;3.30;;;0.80;;
26325;SDS011;14032;52.510;7.342;2022-09-01T15:15:05;4.47;;;0.50;;
26325;SDS011;14032;52.510;7.342;2022-09-01T15:17:35;4.32;;;0.47;;
26325;SDS011;14032;52.510;7.342;2022-09-01T15:20:01;2.28;;;0.50;;
26325;SDS011;14032;52.510;7.342;2022-09-01T15:22:47;1.05;;;0.40;;
26325;SDS011;14032;52.510;7.342;2022-09-01T15:25:14;3.03;;;0.52;;
26325;SDS011;14032;52.510;7.342;2022-09-01T15:27:41;2.38;;;0.60;;
26325;SDS011;14032;52.510;7.342;2022-09-01T15:30:07;3.83;;;0.60;;
26325;SDS011;14032;52.510;7.342;2022-09-01T15:32:38;2.35;;;0.55;;
26325;SDS011;14032;52.510;7.342;2022-09-01T15:35:05;1.63;;;0.52;;
26325;SDS011;14032;52.510;7.342;2022-09-01T15:37:33;2.58;;;0.57;;
26325;SDS011;14032;52.510;7.342;2022-09-01T15:39:59;2.83;;;0.70;;
26325;SDS011;14032;52.510;7.342;2022-09-01T15:42:27;1.70;;;0.40;;
26325;SDS011;14032;52.510;7.342;2022-09-01T15:44:52;1.80;;;0.38;;
26325;SDS011;14032;52.510;7.342;2022-09-01T15:47:18;2.80;;;0.57;;
26325;SDS011;14032;52.510;7.342;2022-09-01T15:49:44;1.70;;;0.30;;
26325;SDS011;14032;52.510;7.342;2022-09-01T15:52:09;1.85;;;0.40;;
26325;SDS011;14032;52.510;7.342;2022-09-01T15:54:38;2.08;;;0.65;;
26325;SDS011;14032;52.510;7.342;2022-09-01T15:57:04;2.97;;;0.55;;
26325;SDS011;14032;52.510;7.342;2022-09-01T15:59:30;1.92;;;0.50;;
26325;SDS011;14032;52.510;7.342;2022-09-01T16:01:57;4.07;;;0.47;;
26325;SDS011;14032;52.510;7.342;2022-09-01T16:04:22;2.95;;;0.40;;
26325;SDS011;14032;52.510;7.342;2022-09-01T16:06:48;2.10;;;0.50;;
26325;SDS011;14032;52.510;7.342;2022-09-01T16:09:15;1.65;;;0.50;;
26325;SDS011;14032;52.510;7.342;2022-09-01T16:11:42;4.10;;;0.60;;
26325;SDS011;14032;52.510;7.342;2022-09-01T16:14:09;2.65;;;0.52;;
26325;SDS011;14032;52.510;7.342;2022-09-01T16:24:27;3.63;;;0.47;;